Terminal Aerodrome Forecast
Issued by NWS

Home | Current Version | Previous Version | Text Only | Print | Product List | Glossary On
Versions: 1 2 3 4 5 6 7 8 9 10 11 12 13 14
000
FTUS44 KMAF 220522
TAFCNM
TAF
KCNM 220522Z 2206/2306 17011KT P6SM FEW200
     FM221800 15011G19KT P6SM SCT090 SCT250 PROB30 2222/2304
      VRB25G35KT 6SM TSRA BKN070CB=

USA.gov is the U.S. government's official web portal to all federal, state and local government web resources and services.